createdAt,value
2022-08-12T00:02:02.966Z,98.14
2022-08-12T00:04:52.240Z,97.76
2022-08-12T00:07:39.403Z,95.24
2022-08-12T00:10:25.712Z,98.98
2022-08-12T00:13:12.580Z,100.00
2022-08-12T00:16:01.583Z,100.00
2022-08-12T00:18:47.624Z,100.00
2022-08-12T00:21:34.026Z,100.00
2022-08-12T00:24:23.945Z,100.00
2022-08-12T00:27:10.402Z,100.00
2022-08-12T00:29:56.225Z,100.00
2022-08-12T00:32:54.496Z,100.00
2022-08-12T00:35:42.424Z,100.00
2022-08-12T00:38:30.610Z,100.00
2022-08-12T00:41:19.266Z,100.00
2022-08-12T00:43:49.472Z,100.00
2022-08-12T00:46:33.008Z,100.00
2022-08-12T00:49:02.691Z,100.00
2022-08-12T00:51:52.893Z,100.00
2022-08-12T00:54:21.283Z,100.00
2022-08-12T00:56:52.186Z,100.00
2022-08-12T00:59:20.789Z,100.00
2022-08-12T01:02:01.129Z,100.00
2022-08-12T01:04:56.313Z,100.00
2022-08-12T01:07:43.189Z,100.00
2022-08-12T01:10:32.638Z,100.00
2022-08-12T01:13:07.322Z,100.00
2022-08-12T01:15:49.453Z,100.00
2022-08-12T01:18:18.341Z,100.00
2022-08-12T01:20:57.485Z,100.00
2022-08-12T01:23:53.153Z,100.00
2022-08-12T01:26:25.428Z,100.00
2022-08-12T01:28:58.443Z,100.00
2022-08-12T01:31:29.232Z,100.00
2022-08-12T01:34:01.710Z,100.00
2022-08-12T01:36:32.191Z,100.00
2022-08-12T01:39:00.375Z,100.00
2022-08-12T01:41:31.991Z,100.00
2022-08-12T01:44:02.435Z,100.00
2022-08-12T01:46:40.755Z,100.00
2022-08-12T01:49:23.533Z,100.00
2022-08-12T01:52:21.871Z,100.00
2022-08-12T01:54:47.031Z,100.00
2022-08-12T01:57:58.138Z,100.00
2022-08-12T02:00:12.226Z,100.00
2022-08-12T02:02:42.140Z,100.00
2022-08-12T02:05:36.290Z,100.00
2022-08-12T02:08:36.774Z,100.00
2022-08-12T02:11:18.876Z,100.00
2022-08-12T02:14:13.966Z,100.00
2022-08-12T02:17:09.572Z,100.00
2022-08-12T02:19:49.549Z,100.00
2022-08-12T02:22:29.252Z,100.00
2022-08-12T02:25:03.386Z,100.00
2022-08-12T02:27:36.138Z,100.00
2022-08-12T02:30:08.831Z,100.00
2022-08-12T02:32:40.318Z,100.00
2022-08-12T02:35:11.332Z,100.00
2022-08-12T02:37:41.302Z,100.00
2022-08-12T02:40:12.943Z,100.00
2022-08-12T02:42:50.012Z,100.00
2022-08-12T02:45:26.497Z,100.00
2022-08-12T02:48:00.706Z,100.00
2022-08-12T02:50:30.314Z,100.00
2022-08-12T02:52:59.512Z,100.00
2022-08-12T02:55:34.878Z,100.00
2022-08-12T02:58:11.937Z,100.00
2022-08-12T03:00:43.441Z,100.00
2022-08-12T03:03:13.670Z,100.00
2022-08-12T03:05:46.608Z,100.00
2022-08-12T03:08:31.585Z,100.00
2022-08-12T03:11:06.169Z,100.00
2022-08-12T03:13:43.063Z,100.00
2022-08-12T03:16:13.939Z,100.00
2022-08-12T03:18:45.746Z,100.00
2022-08-12T03:21:17.241Z,100.00
2022-08-12T03:24:07.053Z,100.00
2022-08-12T03:26:36.647Z,100.00
2022-08-12T03:29:06.926Z,100.00
2022-08-12T03:31:36.983Z,100.00
2022-08-12T03:34:08.182Z,100.00
2022-08-12T03:36:38.403Z,100.00
2022-08-12T03:39:35.810Z,100.00
2022-08-12T03:42:23.170Z,100.00
2022-08-12T03:45:16.436Z,100.00
2022-08-12T03:48:08.522Z,100.00
2022-08-12T03:50:56.102Z,100.00
2022-08-12T03:53:45.501Z,100.00
2022-08-12T03:56:32.043Z,100.00
2022-08-12T03:59:18.824Z,100.00
2022-08-12T04:01:52.594Z,100.00
2022-08-12T04:04:23.461Z,100.00
2022-08-12T04:06:52.166Z,100.00
2022-08-12T04:09:22.321Z,100.00
2022-08-12T04:12:08.773Z,100.00
2022-08-12T04:14:37.710Z,100.00
2022-08-12T04:17:06.149Z,100.00
2022-08-12T04:19:35.858Z,100.00
2022-08-12T04:22:04.299Z,100.00
2022-08-12T04:24:34.941Z,100.00
2022-08-12T04:27:06.169Z,100.00
2022-08-12T04:30:31.590Z,100.00
2022-08-12T04:32:23.309Z,100.00
2022-08-12T04:34:53.505Z,100.00
2022-08-12T04:37:21.955Z,100.00
2022-08-12T04:39:51.223Z,100.00
2022-08-12T04:42:20.152Z,100.00
2022-08-12T04:44:48.822Z,95.16
2022-08-12T04:47:18.087Z,82.58
2022-08-12T04:49:48.092Z,74.21
2022-08-12T04:52:18.173Z,81.38
2022-08-12T04:54:46.555Z,75.99
2022-08-12T04:57:16.004Z,70.02
2022-08-12T04:59:48.300Z,66.79
2022-08-12T05:02:21.102Z,65.09
2022-08-12T05:04:52.802Z,61.15
2022-08-12T05:07:24.293Z,56.66
2022-08-12T05:09:59.191Z,56.75
2022-08-12T05:12:37.846Z,57.37
2022-08-12T05:15:19.020Z,53.46
2022-08-12T05:17:59.797Z,52.87
2022-08-12T05:20:30.825Z,51.42
2022-08-12T05:23:13.393Z,50.99
2022-08-12T05:25:43.179Z,50.42
2022-08-12T05:28:12.914Z,52.62
2022-08-12T05:30:43.421Z,52.35
2022-08-12T05:33:12.768Z,53.53
2022-08-12T05:35:43.183Z,53.45
2022-08-12T05:38:34.477Z,54.76
2022-08-12T05:41:04.670Z,52.13
2022-08-12T05:43:34.583Z,52.02
2022-08-12T05:46:02.916Z,53.62
2022-08-12T05:48:32.530Z,55.00
2022-08-12T05:51:00.875Z,56.20
2022-08-12T05:53:30.589Z,60.59
2022-08-12T05:55:58.901Z,63.73
2022-08-12T05:58:28.010Z,67.17
2022-08-12T06:00:57.042Z,70.14
2022-08-12T06:03:25.591Z,69.05
2022-08-12T06:05:57.127Z,66.73
2022-08-12T06:08:26.477Z,69.26
2022-08-12T06:10:57.199Z,72.86
2022-08-12T06:13:52.647Z,72.09
2022-08-12T06:16:15.608Z,74.67
2022-08-12T06:18:44.207Z,73.10
2022-08-12T06:21:16.023Z,72.76
2022-08-12T06:23:45.831Z,71.41
2022-08-12T06:26:16.718Z,67.98
2022-08-12T06:28:46.087Z,67.30
2022-08-12T06:31:32.137Z,67.61
2022-08-12T06:35:27.016Z,66.11
2022-08-12T06:36:49.460Z,64.67
2022-08-12T06:39:17.876Z,66.62
2022-08-12T06:42:31.684Z,65.82
2022-08-12T06:44:58.820Z,63.73
2022-08-12T06:47:27.266Z,62.65
2022-08-12T06:49:55.579Z,63.06
2022-08-12T06:52:24.902Z,61.64
2022-08-12T06:54:55.378Z,58.18
2022-08-12T06:57:57.865Z,59.63
2022-08-12T07:00:17.067Z,60.87
2022-08-12T07:02:46.716Z,59.75
2022-08-12T07:05:15.126Z,59.34
2022-08-12T07:07:46.428Z,59.24
2022-08-12T07:10:14.757Z,54.78
2022-08-12T07:12:45.313Z,60.64
2022-08-12T07:15:13.687Z,60.70
2022-08-12T07:17:42.056Z,64.18
2022-08-12T07:20:29.630Z,59.71
2022-08-12T07:23:01.739Z,58.10
2022-08-12T07:25:41.116Z,59.25
2022-08-12T07:28:16.073Z,59.23
2022-08-12T07:30:46.803Z,58.39
2022-08-12T07:33:16.809Z,56.76
2022-08-12T07:35:47.880Z,55.42
2022-08-12T07:38:29.684Z,56.24
2022-08-12T07:41:03.195Z,54.31
2022-08-12T07:43:35.556Z,54.99
2022-08-12T07:46:05.748Z,51.62
2022-08-12T07:48:38.258Z,52.31
2022-08-12T07:51:07.147Z,52.96
2022-08-12T07:53:47.728Z,51.03
2022-08-12T07:56:24.857Z,50.92
2022-08-12T07:58:55.348Z,48.92
2022-08-12T08:01:23.720Z,50.15
2022-08-12T08:04:15.130Z,47.40
2022-08-12T08:06:46.834Z,47.01
2022-08-12T08:09:18.260Z,47.30
2022-08-12T08:12:04.135Z,48.73
2022-08-12T08:14:33.837Z,47.39
2022-08-12T08:17:06.617Z,48.24
2022-08-12T08:20:02.781Z,49.43
2022-08-12T08:22:25.742Z,46.88
2022-08-12T08:25:34.241Z,48.30
2022-08-12T08:28:00.335Z,45.44
2022-08-12T08:30:30.904Z,45.41
2022-08-12T08:32:59.421Z,44.27
2022-08-12T08:35:32.844Z,43.96
2022-08-12T08:38:18.585Z,43.01
2022-08-12T08:42:19.188Z,42.47
2022-08-12T08:44:08.001Z,42.86
2022-08-12T08:46:38.182Z,43.18
2022-08-12T08:49:07.167Z,42.24
2022-08-12T08:51:35.621Z,42.00
2022-08-12T08:54:04.152Z,41.22
2022-08-12T08:56:32.544Z,40.55
2022-08-12T08:59:01.132Z,41.64
2022-08-12T09:01:37.991Z,41.82
2022-08-12T09:05:13.646Z,40.64
2022-08-12T09:07:16.894Z,40.58
2022-08-12T09:10:03.527Z,41.38
2022-08-12T09:12:56.368Z,41.75
2022-08-12T09:15:35.778Z,40.88
2022-08-12T09:18:08.934Z,41.35
2022-08-12T09:20:55.498Z,41.75
2022-08-12T09:23:57.124Z,41.04
2022-08-12T09:26:12.256Z,39.92
2022-08-12T09:28:41.111Z,39.98
2022-08-12T09:32:02.955Z,39.90
2022-08-12T09:34:29.259Z,39.29
2022-08-12T09:37:01.101Z,38.56
2022-08-12T09:40:05.758Z,38.70
2022-08-12T09:42:54.108Z,38.99
2022-08-12T09:46:11.358Z,39.12
2022-08-12T09:48:19.743Z,39.70
2022-08-12T09:50:51.922Z,39.30
2022-08-12T09:53:29.220Z,37.80
2022-08-12T09:56:59.580Z,36.91
2022-08-12T09:58:59.721Z,36.72
2022-08-12T10:01:35.546Z,36.88
2022-08-12T10:04:19.711Z,36.86
2022-08-12T10:06:55.246Z,37.00
2022-08-12T10:09:28.542Z,36.45
2022-08-12T10:13:12.256Z,38.02
2022-08-12T10:16:01.743Z,36.20
2022-08-12T10:18:10.616Z,35.96
2022-08-12T10:20:39.601Z,35.82
2022-08-12T10:23:08.243Z,35.94
2022-08-12T10:26:33.943Z,35.24
2022-08-12T10:30:03.331Z,35.28
2022-08-12T10:32:20.829Z,34.87
2022-08-12T10:34:53.188Z,35.58
2022-08-12T10:38:34.304Z,36.07
2022-08-12T10:40:20.046Z,35.30
2022-08-12T10:43:09.089Z,35.90
2022-08-12T10:45:38.450Z,35.61
2022-08-12T10:48:26.441Z,36.11
2022-08-12T10:51:01.539Z,34.20
2022-08-12T10:53:44.007Z,35.12
2022-08-12T10:56:16.066Z,35.90
2022-08-12T10:58:47.844Z,35.01
2022-08-12T11:01:26.041Z,36.09
2022-08-12T11:04:26.473Z,35.87
2022-08-12T11:07:06.014Z,35.02
2022-08-12T11:09:59.789Z,34.46
2022-08-12T11:12:56.222Z,34.88
2022-08-12T11:15:24.169Z,33.72
2022-08-12T11:17:55.609Z,33.50
2022-08-12T11:20:30.993Z,33.13
2022-08-12T11:23:04.316Z,32.11
2022-08-12T11:25:57.381Z,32.04
2022-08-12T11:28:33.837Z,32.92
2022-08-12T11:31:05.413Z,31.75
2022-08-12T11:34:04.320Z,31.33
2022-08-12T11:36:22.443Z,32.18
2022-08-12T11:38:51.433Z,33.01
2022-08-12T11:41:31.092Z,31.49
2022-08-12T11:44:29.131Z,31.68
2022-08-12T11:46:53.265Z,32.73
2022-08-12T11:49:31.199Z,32.11
2022-08-12T11:52:02.791Z,32.63
2022-08-12T11:54:31.178Z,32.14
2022-08-12T11:57:02.332Z,32.24
2022-08-12T12:02:21.742Z,33.10
2022-08-12T12:04:52.740Z,33.40
2022-08-12T12:08:36.620Z,33.28
2022-08-12T12:10:13.001Z,34.04
2022-08-12T12:12:50.122Z,32.98
2022-08-12T12:15:24.647Z,32.72
2022-08-12T12:17:55.987Z,33.47
2022-08-12T12:20:25.996Z,33.54
2022-08-12T12:22:56.215Z,32.20
2022-08-12T12:26:07.602Z,32.08
2022-08-12T12:28:37.173Z,31.81
2022-08-12T12:31:04.252Z,30.71
2022-08-12T12:33:57.427Z,31.03
2022-08-12T12:36:29.244Z,31.20
2022-08-12T12:39:00.281Z,30.32
2022-08-12T12:42:45.097Z,30.38
2022-08-12T12:44:27.529Z,30.72
2022-08-12T12:47:28.757Z,30.31
2022-08-12T12:49:56.263Z,30.70
2022-08-12T12:52:26.784Z,29.10
2022-08-12T12:54:57.521Z,30.69
2022-08-12T12:57:36.412Z,31.88
2022-08-12T13:00:15.872Z,31.19
2022-08-12T13:02:53.607Z,31.90
2022-08-12T13:05:27.813Z,31.92
2022-08-12T13:08:01.141Z,31.11
2022-08-12T13:10:37.003Z,30.73
2022-08-12T13:14:07.579Z,30.87
2022-08-12T13:15:58.995Z,29.43
2022-08-12T13:18:28.831Z,30.73
2022-08-12T13:20:59.862Z,29.66
2022-08-12T13:23:36.226Z,29.46
2022-08-12T13:26:14.318Z,29.85
2022-08-12T13:28:45.711Z,29.53
2022-08-12T13:31:24.950Z,29.60
2022-08-12T13:34:31.922Z,30.10
2022-08-12T13:36:47.394Z,30.37
2022-08-12T13:39:16.397Z,29.93
2022-08-12T13:41:44.916Z,29.85
2022-08-12T13:44:13.429Z,29.28
2022-08-12T13:46:42.475Z,30.08
2022-08-12T13:49:20.465Z,30.36
2022-08-12T13:52:03.544Z,28.94
2022-08-12T13:54:32.833Z,29.89
2022-08-12T13:57:01.698Z,28.61
2022-08-12T13:59:31.014Z,29.76
2022-08-12T14:02:18.324Z,28.71
2022-08-12T14:04:56.520Z,29.03
2022-08-12T14:07:27.496Z,28.70
2022-08-12T14:10:16.253Z,29.05
2022-08-12T14:12:54.740Z,28.81
2022-08-12T14:15:36.996Z,29.29
2022-08-12T14:18:13.665Z,29.29
2022-08-12T14:20:47.678Z,28.89
2022-08-12T14:24:08.045Z,28.68
2022-08-12T14:26:12.020Z,29.18
2022-08-12T14:28:45.472Z,28.20
2022-08-12T14:31:31.366Z,28.76
2022-08-12T14:34:04.799Z,29.14
2022-08-12T14:36:33.298Z,29.21
2022-08-12T14:39:06.023Z,29.34
2022-08-12T14:41:37.002Z,28.87
2022-08-12T14:44:59.859Z,30.00
2022-08-12T14:47:08.076Z,29.82
2022-08-12T14:50:33.461Z,30.37
2022-08-12T14:53:04.495Z,30.46
2022-08-12T14:58:04.334Z,30.51
2022-08-12T15:00:53.529Z,29.76
2022-08-12T15:03:46.672Z,28.72
2022-08-12T15:06:43.509Z,28.18
2022-08-12T15:09:12.098Z,28.64
2022-08-12T15:11:54.758Z,29.62
2022-08-12T15:14:25.668Z,29.80
2022-08-12T15:16:54.727Z,31.28
2022-08-12T15:20:11.986Z,32.14
2022-08-12T15:22:37.299Z,31.16
2022-08-12T15:24:59.703Z,33.02
2022-08-12T15:28:03.247Z,32.11
2022-08-12T15:30:22.626Z,32.77
2022-08-12T15:32:53.513Z,32.43
2022-08-12T15:35:22.006Z,32.45
2022-08-12T15:38:10.095Z,32.96
2022-08-12T15:40:48.481Z,33.39
2022-08-12T15:43:51.083Z,32.86
2022-08-12T15:46:15.383Z,33.96
2022-08-12T15:48:47.087Z,34.16
2022-08-12T15:51:59.324Z,34.06
2022-08-12T15:54:34.114Z,34.79
2022-08-12T15:57:07.612Z,35.55
2022-08-12T16:00:00.197Z,36.22
2022-08-12T16:02:29.623Z,36.45
2022-08-12T16:04:58.754Z,37.55
2022-08-12T16:07:31.066Z,37.50
2022-08-12T16:10:10.517Z,37.51
2022-08-12T16:12:41.942Z,37.21
2022-08-12T16:15:15.938Z,37.75
2022-08-12T16:18:18.730Z,36.74
2022-08-12T16:20:39.612Z,41.32
2022-08-12T16:23:26.401Z,43.89
2022-08-12T16:26:05.202Z,43.43
2022-08-12T16:28:42.627Z,41.55
2022-08-12T16:31:18.698Z,41.55
2022-08-12T16:33:56.392Z,38.78
2022-08-12T16:36:28.369Z,39.43
2022-08-12T16:38:56.720Z,38.40
2022-08-12T16:41:25.648Z,37.41
2022-08-12T16:43:56.683Z,37.57
2022-08-12T16:46:32.436Z,37.34
2022-08-12T16:49:08.548Z,37.97
2022-08-12T16:51:46.118Z,38.60
2022-08-12T16:54:17.075Z,38.79
2022-08-12T16:56:55.457Z,39.60
2022-08-12T16:59:31.006Z,40.93
2022-08-12T17:02:34.121Z,40.47
2022-08-12T17:05:04.229Z,40.39
2022-08-12T17:07:36.864Z,40.43
2022-08-12T17:10:06.718Z,40.62
2022-08-12T17:12:37.601Z,40.98
2022-08-12T17:15:50.141Z,41.30
2022-08-12T17:18:38.818Z,43.20
2022-08-12T17:20:48.535Z,41.80
2022-08-12T17:23:19.465Z,40.78
2022-08-12T17:25:50.246Z,40.13
2022-08-12T17:28:20.177Z,38.53
2022-08-12T17:30:57.472Z,38.06
2022-08-12T17:33:33.537Z,37.80
2022-08-12T17:36:05.688Z,36.72
2022-08-12T17:38:35.681Z,37.30
2022-08-12T17:41:22.774Z,36.27
2022-08-12T17:43:58.729Z,37.95
2022-08-12T17:46:33.610Z,37.63
2022-08-12T17:49:06.603Z,38.66
2022-08-12T17:52:02.082Z,38.92
2022-08-12T17:54:31.752Z,38.36
2022-08-12T17:57:02.557Z,39.15
2022-08-12T17:59:47.711Z,38.47
2022-08-12T18:02:19.409Z,38.98
2022-08-12T18:05:05.417Z,38.70
2022-08-12T18:07:39.236Z,38.94
2022-08-12T18:10:08.720Z,39.06
2022-08-12T18:12:42.787Z,40.10
2022-08-12T18:15:26.241Z,40.07
2022-08-12T18:18:16.524Z,40.51
2022-08-12T18:20:46.663Z,41.35
2022-08-12T18:23:15.034Z,42.38
2022-08-12T18:26:15.274Z,43.82
2022-08-12T18:28:48.161Z,43.97
2022-08-12T18:31:18.509Z,45.77
2022-08-12T18:33:47.992Z,46.64
2022-08-12T18:36:22.040Z,48.81
2022-08-12T18:38:53.082Z,49.51
2022-08-12T18:41:34.238Z,49.71
2022-08-12T18:44:08.149Z,52.01
2022-08-12T18:46:53.770Z,52.68
2022-08-12T18:49:30.720Z,54.91
2022-08-12T18:52:05.249Z,55.85
2022-08-12T18:54:36.041Z,56.88
2022-08-12T18:57:19.269Z,56.52
2022-08-12T19:00:00.709Z,56.39
2022-08-12T19:02:36.178Z,58.04
2022-08-12T19:05:09.854Z,57.98
2022-08-12T19:07:49.337Z,58.59
2022-08-12T19:10:23.097Z,59.11
2022-08-12T19:13:10.582Z,58.81
2022-08-12T19:15:42.359Z,58.66
2022-08-12T19:18:12.454Z,59.13
2022-08-12T19:20:42.050Z,59.82
2022-08-12T19:23:21.114Z,61.45
2022-08-12T19:26:00.373Z,62.82
2022-08-12T19:28:35.714Z,60.47
2022-08-12T19:31:55.733Z,61.11
2022-08-12T19:34:56.378Z,61.59
2022-08-12T19:37:20.136Z,62.26
2022-08-12T19:40:09.317Z,62.16
2022-08-12T19:42:44.491Z,62.56
2022-08-12T19:45:14.013Z,62.74
2022-08-12T19:47:46.695Z,63.56
2022-08-12T19:50:19.621Z,65.23
2022-08-12T19:52:51.019Z,65.01
2022-08-12T19:55:21.837Z,63.33
2022-08-12T19:58:02.455Z,64.74
2022-08-12T20:00:34.572Z,67.25
2022-08-12T20:03:06.166Z,67.99
2022-08-12T20:06:05.766Z,68.25
2022-08-12T20:08:33.993Z,72.70
2022-08-12T20:12:14.050Z,71.75
2022-08-12T20:14:00.202Z,73.29
2022-08-12T20:17:01.695Z,73.19
2022-08-12T20:19:28.480Z,74.79
2022-08-12T20:22:24.478Z,71.50
2022-08-12T20:25:01.348Z,70.42
2022-08-12T20:28:02.427Z,70.14
2022-08-12T20:30:37.895Z,71.76
2022-08-12T20:33:18.585Z,74.59
2022-08-12T20:36:13.446Z,77.13
2022-08-12T20:38:46.067Z,77.18
2022-08-12T20:41:17.532Z,78.87
2022-08-12T20:43:50.749Z,80.51
2022-08-12T20:46:21.151Z,82.80
2022-08-12T20:48:54.535Z,86.14
2022-08-12T20:51:23.836Z,85.91
2022-08-12T20:53:58.737Z,88.72
2022-08-12T20:56:34.833Z,89.02
2022-08-12T20:59:06.711Z,96.64
2022-08-12T21:01:47.105Z,95.53
2022-08-12T21:04:35.134Z,95.59
2022-08-12T21:07:09.157Z,96.44
2022-08-12T21:09:41.950Z,95.16
2022-08-12T21:12:28.437Z,99.54
2022-08-12T21:15:24.127Z,100.00
2022-08-12T21:18:15.500Z,100.00
2022-08-12T21:20:52.704Z,100.00
2022-08-12T21:23:22.608Z,100.00
2022-08-12T21:25:52.566Z,100.00
2022-08-12T21:28:31.257Z,100.00
2022-08-12T21:32:35.510Z,100.00
2022-08-12T21:34:08.002Z,100.00
2022-08-12T21:36:39.739Z,100.00
2022-08-12T21:39:20.710Z,100.00
2022-08-12T21:41:52.275Z,100.00
2022-08-12T21:45:43.459Z,100.00
2022-08-12T21:47:21.384Z,100.00
2022-08-12T21:50:03.236Z,100.00
2022-08-12T21:52:37.058Z,100.00
2022-08-12T21:55:08.043Z,100.00
2022-08-12T21:57:50.672Z,100.00
2022-08-12T22:00:23.899Z,100.00
2022-08-12T22:04:04.305Z,100.00
2022-08-12T22:06:30.893Z,100.00
2022-08-12T22:09:15.357Z,100.00
2022-08-12T22:11:49.342Z,100.00
2022-08-12T22:14:28.599Z,100.00
2022-08-12T22:16:58.194Z,100.00
2022-08-12T22:19:27.883Z,100.00
2022-08-12T22:21:58.402Z,100.00
2022-08-12T22:24:30.024Z,100.00
2022-08-12T22:27:17.947Z,100.00
2022-08-12T22:30:06.163Z,100.00
2022-08-12T22:32:38.673Z,100.00
2022-08-12T22:35:29.132Z,100.00
2022-08-12T22:37:58.895Z,100.00
2022-08-12T22:40:27.152Z,100.00
2022-08-12T22:43:15.280Z,100.00
2022-08-12T22:46:01.498Z,100.00
2022-08-12T22:48:30.636Z,100.00
2022-08-12T22:51:00.525Z,100.00
2022-08-12T22:53:35.884Z,100.00
2022-08-12T22:56:08.083Z,100.00
2022-08-12T22:58:40.423Z,100.00
2022-08-12T23:01:10.813Z,100.00
2022-08-12T23:03:47.050Z,100.00
2022-08-12T23:06:23.162Z,100.00
2022-08-12T23:08:52.031Z,100.00
2022-08-12T23:11:23.963Z,100.00
2022-08-12T23:13:56.939Z,100.00
2022-08-12T23:16:31.816Z,100.00
2022-08-12T23:19:10.638Z,100.00
2022-08-12T23:22:05.471Z,100.00
2022-08-12T23:24:56.281Z,100.00
2022-08-12T23:27:52.316Z,100.00
2022-08-12T23:30:31.676Z,100.00
2022-08-12T23:33:01.586Z,100.00
2022-08-12T23:35:45.540Z,100.00
2022-08-12T23:38:31.638Z,100.00
2022-08-12T23:41:01.895Z,100.00
2022-08-12T23:43:38.861Z,100.00
2022-08-12T23:46:10.559Z,100.00
2022-08-12T23:48:40.088Z,100.00
2022-08-12T23:51:21.518Z,100.00
2022-08-12T23:53:55.190Z,100.00
2022-08-12T23:56:24.726Z,100.00
2022-08-12T23:58:55.084Z,100.00
